Date,TemperatureHighF,TemperatureAvgF,TemperatureLowF,DewpointHighF,DewpointAvgF,DewpointLowF,HumidityHigh,HumidityAvg,HumidityLow,PressureMaxIn,PressureMinIn,WindSpeedMaxMPH,WindSpeedAvgMPH,GustSpeedMaxMPH,PrecipitationSumIn
2013-1-1,17.0,6.8,-7.0,15.0,3.2,-11.0,90,84,78,30.13,29.73,8,4,16,0.00
2013-1-2,20.0,13.3,2.0,18.0,9.2,-2.0,91,84,67,30.22,29.72,8,4,14,0.00
2013-1-3,27.0,16.1,5.0,20.0,10.9,1.0,88,80,71,30.22,29.73,13,6,24,0.00
2013-1-4,33.0,21.1,7.0,23.0,14.8,2.0,84,77,64,30.09,29.80,7,4,12,0.00
2013-1-5,19.0,10.7,5.0,11.0,5.0,1.0,86,78,58,30.08,30.02,7,2,11,0.00
2013-1-6,19.0,13.9,6.0,17.0,10.7,3.0,90,87,82,30.13,29.54,18,5,29,0.00
2013-1-7,36.0,27.7,18.0,29.0,22.3,15.0,88,81,64,29.74,29.42,15,5,26,0.03
2013-1-8,34.0,25.9,13.0,31.0,22.2,10.0,93,86,80,29.74,29.43,16,7,32,0.01
2013-1-9,31.0,24.7,21.0,23.0,19.5,16.0,89,80,66,30.10,29.49,16,6,26,0.02
2013-1-10,39.0,29.3,23.0,32.0,25.1,18.0,91,84,77,29.92,29.60,12,6,22,0.02
2013-1-11,27.0,15.0,8.0,25.0,12.3,5.0,93,89,86,29.70,29.59,18,10,32,0.00
2013-1-12,8.0,-0.6,-10.0,5.0,-3.9,-14.0,89,85,80,30.13,29.67,21,9,32,0.64
2013-1-13,7.0,-3.2,-13.0,4.0,-6.6,-17.0,87,85,81,30.17,30.07,7,2,12,0.64
2013-1-14,7.0,0.8,-7.0,3.0,-2.6,-11.0,88,85,83,30.22,30.09,5,2,9,0.00
2013-1-15,25.0,6.3,-8.0,24.0,3.0,-12.0,94,86,82,30.10,29.40,12,5,27,0.00
2013-1-16,21.0,-0.7,-10.0,19.0,-5.8,-16.0,90,78,68,30.25,29.48,16,6,25,0.00
2013-1-17,9.0,-1.9,-8.0,2.0,-7.0,-14.0,86,79,69,30.38,30.13,7,2,11,0.02
2013-1-18,11.0,5.5,-2.0,7.0,2.0,-6.0,88,85,81,30.12,29.70,8,4,13,0.02
2013-1-19,10.0,1.4,-11.0,7.0,-2.2,-15.0,89,84,78,30.31,29.65,15,6,26,0.00
2013-1-20,2.0,-8.7,-17.0,-4.0,-13.6,-23.0,84,79,72,30.35,30.28,10,4,18,0.00
2013-1-21,-3.0,-13.1,-18.0,-10.0,-18.4,-23.0,92,77,69,30.31,30.23,10,5,15,0.00
2013-1-22,-1.0,-10.9,-19.0,-6.0,-15.9,-23.0,92,78,69,30.29,30.07,7,2,12,0.00
2013-1-23,-1.0,-9.8,-21.0,-6.0,-15.9,-26.0,81,74,64,30.68,30.08,10,5,18,0.00
2013-1-24,1.0,-11.1,-22.0,-2.0,-15.7,-27.0,86,79,71,30.67,29.92,10,5,21,0.00
2013-1-25,4.0,-4.5,-12.0,-1.0,-9.0,-16.0,86,80,72,30.29,29.89,9,4,16,0.00
2013-1-26,11.0,0.0,-13.0,5.0,-4.4,-17.0,86,81,75,30.25,30.00,10,4,18,0.00
2013-1-27,18.0,7.8,-2.0,12.0,4.0,-5.0,89,84,73,30.01,29.80,7,1,12,0.00
2013-1-28,22.0,15.5,6.0,18.0,12.6,3.0,92,88,82,29.80,29.72,4,1,7,0.00
2013-1-29,21.0,15.6,2.0,19.0,12.7,-2.0,92,87,80,29.99,29.70,10,4,16,0.00
2013-1-30,9.0,3.6,-4.0,4.0,-0.2,-8.0,87,84,78,29.99,29.88,9,5,16,0.00
2013-1-31,-4.0,-11.6,-17.0,-8.0,-17.4,-23.0,82,75,67,30.25,29.95,11,5,17,0.00
2013-2-1,-7.0,-14.9,-23.0,-13.0,-20.2,-27.0,81,76,70,30.22,30.06,7,2,10,0.00
2013-2-2,5.0,-7.0,-21.0,2.0,-11.2,-25.0,85,81,77,30.18,29.95,7,3,12,0.00
2013-2-3,13.0,1.3,-5.0,5.0,-3.4,-9.0,85,80,67,30.08,30.02,6,2,11,0.00
2013-2-4,12.0,2.3,-13.0,9.0,-1.0,-17.0,88,85,81,30.03,29.59,11,3,20,0.00
2013-2-5,6.0,-1.4,-11.0,3.0,-5.8,-15.0,87,81,73,30.06,29.66,6,4,10,0.00
2013-2-6,17.0,7.7,1.0,11.0,3.2,-3.0,87,81,76,30.22,29.95,6,3,12,0.00
2013-2-7,20.0,4.7,-2.0,11.0,-0.4,-6.0,88,79,60,30.33,30.22,4,1,7,0.04
2013-2-8,23.0,13.0,-1.0,19.0,9.4,-4.0,90,86,82,30.27,29.97,16,6,25,0.01
2013-2-9,27.0,24.4,22.0,24.0,21.9,19.0,93,90,88,29.97,29.84,11,4,15,0.00
2013-2-10,29.0,25.5,23.0,26.0,21.1,-99.9,94,89,85,29.89,29.80,12,4,21,0.00
2013-2-11,28.0,19.3,13.0,20.0,14.3,10.0,89,81,63,29.94,29.73,14,5,24,0.09
2013-2-12,35.0,23.2,12.0,27.0,18.0,9.0,91,81,67,29.73,29.59,9,4,17,0.06
2013-2-13,33.0,21.7,11.0,27.0,17.8,5.0,94,85,76,29.84,29.60,6,2,13,0.03
2013-2-14,19.0,10.6,2.0,9.0,4.4,-1.0,85,76,62,30.16,29.84,7,5,13,0.03
2013-2-15,19.0,11.3,3.0,12.0,5.4,-1.0,87,77,68,30.31,30.17,8,3,14,0.00
2013-2-16,17.0,8.6,-3.0,14.0,4.7,-6.0,88,84,78,30.17,29.80,13,6,24,0.00
2013-2-17,29.0,24.0,17.0,26.0,21.3,14.0,94,90,87,29.80,29.42,14,8,30,0.00
2013-2-18,24.0,5.2,-7.0,22.0,1.9,-12.0,92,86,80,30.23,29.57,17,12,33,0.00
2013-2-19,4.0,-7.2,-15.0,-3.0,-12.9,-20.0,81,76,68,30.53,30.23,12,6,20,0.00
2013-2-20,8.0,-4.1,-16.0,-1.0,-10.7,-20.0,81,73,59,30.55,30.38,8,3,14,0.00
2013-2-21,20.0,10.4,5.0,8.0,1.9,-4.0,81,68,55,30.40,30.24,11,4,19,0.00
2013-2-22,24.0,12.4,3.0,15.0,6.7,-1.0,90,78,62,30.24,29.91,5,1,8,0.00
2013-2-23,24.0,18.9,11.0,21.0,16.2,7.0,93,89,84,29.91,29.83,7,3,15,0.00
2013-2-24,26.0,18.9,14.0,19.0,15.5,12.0,93,87,73,29.97,29.90,10,5,17,0.00
2013-2-25,34.0,20.5,8.0,25.0,16.0,5.0,91,83,65,29.97,29.87,12,4,19,0.03
2013-2-26,36.0,22.2,15.0,24.0,16.6,11.0,88,79,58,30.09,29.89,7,2,14,0.03
2013-2-27,36.0,23.8,12.0,27.0,18.8,10.0,92,82,66,30.28,30.09,11,5,22,0.01
2013-2-28,34.0,22.4,10.0,20.0,13.4,6.0,85,69,54,30.38,30.34,6,2,9,0.00
2013-3-1,32.0,14.4,2.0,17.0,7.8,-1.0,90,76,49,30.45,30.31,7,1,9,0.00
2013-3-2,27.0,17.8,8.0,20.0,11.6,0.0,85,76,68,30.31,30.03,12,5,24,0.00
2013-3-3,32.0,26.9,22.0,23.0,19.4,17.0,84,74,64,30.03,29.91,9,4,15,0.00
2013-3-4,29.0,25.0,22.0,22.0,20.4,15.0,92,83,59,30.21,29.95,11,6,20,0.00
2013-3-5,29.0,22.2,17.0,23.0,18.9,15.0,92,87,77,30.40,30.21,8,4,14,0.11
2013-3-6,26.0,18.8,10.0,20.0,14.8,7.0,91,84,73,30.43,30.30,6,1,9,0.02
2013-3-7,30.0,19.9,7.0,22.0,14.1,4.0,89,79,64,30.33,30.12,12,4,23,0.04
2013-3-8,34.0,25.6,19.0,25.0,20.6,15.0,90,82,65,30.17,30.09,8,4,15,0.13
2013-3-9,38.0,25.5,19.0,25.0,19.8,16.0,89,79,56,30.09,29.86,12,3,19,0.01
2013-3-10,29.0,24.9,21.0,19.0,16.3,13.0,87,71,52,30.27,30.04,12,7,19,0.00
2013-3-12,32.0,22.2,9.0,22.0,14.5,4.0,80,72,62,30.29,30.16,11,6,18,0.00
2013-3-13,21.0,12.4,1.0,15.0,5.9,-2.0,88,75,61,30.31,30.05,13,5,20,0.00
2013-3-14,38.0,25.6,13.0,25.0,18.0,7.0,84,73,57,30.19,30.04,12,7,18,0.00
2013-3-15,13.0,7.3,2.0,8.0,0.7,-3.0,83,74,61,30.22,30.17,10,6,16,0.00
2013-3-16,19.0,6.2,-1.0,6.0,0.1,-5.0,85,76,57,30.22,30.17,9,4,16,0.01
2013-3-21,31.0,22.6,8.0,17.0,11.5,2.0,78,63,53,30.16,30.12,6,3,9,0.02
2013-3-22,34.0,15.9,-2.0,22.0,9.0,-6.0,90,75,55,30.14,30.10,7,2,10,0.01
2013-3-23,36.0,21.5,6.0,26.0,15.2,3.0,91,77,58,30.22,30.13,7,2,12,0.00
2013-3-24,38.0,26.5,19.0,28.0,20.4,15.0,91,78,61,30.27,30.19,8,4,14,0.00
2013-3-25,38.0,26.7,19.0,26.0,20.3,15.0,87,77,59,30.35,30.27,8,4,13,0.00
2013-3-26,40.0,21.4,9.0,25.0,15.3,6.0,92,78,54,30.32,30.27,6,2,9,0.00
2013-3-27,40.0,23.1,8.0,26.0,16.3,5.0,89,76,54,30.33,30.28,5,1,8,0.00
2013-3-28,41.0,27.5,15.0,29.0,20.8,12.0,89,77,57,30.29,30.19,8,2,11,0.00
2013-3-29,38.0,31.1,27.0,31.0,27.2,24.0,92,86,74,30.20,29.95,5,2,8,0.00
2013-3-30,49.0,34.9,25.0,33.0,25.8,-99.9,93,74,47,29.95,29.83,11,4,22,0.00
2013-3-31,32.0,24.0,14.0,27.0,16.6,8.0,91,74,54,30.20,29.86,14,7,23,0.05
2013-4-1,38.0,22.9,10.0,21.0,12.8,5.0,81,66,44,30.26,30.20,9,4,15,0.01
2013-4-2,37.0,24.0,11.0,17.0,11.6,4.0,79,61,39,30.38,30.21,5,2,9,0.00
2013-4-3,39.0,27.7,17.0,32.0,20.2,7.0,84,73,65,30.28,29.82,19,8,32,0.00
2013-4-4,36.0,28.9,20.0,28.0,19.0,14.0,83,67,48,30.28,29.93,11,6,17,0.00
2013-4-5,33.0,31.1,29.0,27.0,20.8,14.0,91,67,48,30.14,29.89,9,6,15,0.00
2013-4-6,41.0,34.7,29.0,32.0,29.1,26.0,91,80,70,29.89,29.75,12,6,17,0.00
2013-4-7,37.0,29.1,22.0,27.0,23.0,18.0,85,78,59,29.93,29.85,9,4,14,0.06
2013-4-8,31.0,22.2,14.0,18.0,12.7,7.0,83,67,53,30.29,29.93,13,7,20,0.01
2013-4-9,38.0,20.0,4.0,22.0,10.5,-2.0,78,67,52,30.43,30.30,8,4,13,0.00
2013-4-10,47.0,33.8,17.0,25.0,19.3,12.0,81,57,39,30.36,30.11,7,3,10,0.00
2013-4-11,42.0,33.0,23.0,25.0,17.4,13.0,69,54,37,30.12,29.98,10,4,15,0.00
2013-4-12,41.0,35.9,30.0,27.0,24.9,22.0,79,65,47,29.99,29.90,9,3,14,0.00
2013-4-13,43.0,32.3,20.0,28.0,22.5,17.0,91,68,48,29.95,29.91,9,3,14,0.00
2013-4-14,49.0,34.9,20.0,31.0,22.7,15.0,82,62,40,29.98,29.78,13,4,20,0.00
2013-4-15,36.0,33.3,31.0,32.0,30.7,27.0,94,91,70,29.97,29.70,0,0,0,0.26
2013-4-16,43.0,33.8,28.0,30.0,23.8,19.0,92,68,50,30.38,29.97,0,0,0,0.13
2013-4-17,45.0,33.6,25.0,33.0,25.7,17.0,85,73,57,30.38,30.15,4,0,4,0.03
2013-4-18,48.0,36.5,28.0,28.0,25.5,22.0,89,67,42,30.17,29.93,0,0,0,0.00
2013-4-19,42.0,31.5,23.0,25.0,19.8,15.0,79,63,45,30.06,29.92,15,4,20,0.00
2013-4-20,39.0,28.2,15.0,21.0,14.2,7.0,82,58,27,30.18,30.06,10,4,15,0.00
2013-4-21,34.0,32.1,31.0,32.0,26.5,21.0,93,80,65,30.11,29.89,10,2,20,0.03
2013-4-26,67.0,58.0,47.0,43.0,40.6,37.0,70,53,38,29.96,29.93,7,4,12,0.00
2013-4-27,63.0,52.1,44.0,46.0,40.4,37.0,81,65,49,29.93,29.59,11,5,19,0.00
2013-4-28,68.0,53.5,41.0,46.0,36.9,26.0,85,58,21,29.81,29.48,17,6,26,0.00
2013-4-29,56.0,43.9,29.0,46.0,34.3,25.0,90,71,35,29.81,29.48,12,5,17,0.14
2013-4-30,47.0,40.9,30.0,46.0,39.1,28.0,96,94,90,29.93,29.35,10,3,16,0.65
2013-5-1,36.0,30.5,27.0,31.0,26.4,23.0,93,85,76,30.61,29.91,8,5,18,0.11
2013-5-2,40.0,32.7,26.0,29.0,25.6,23.0,89,76,58,30.71,30.56,5,2,9,0.01
2013-5-3,57.0,38.9,22.0,34.0,27.4,19.0,94,66,39,30.56,30.31,6,2,11,0.00
2013-5-4,65.0,47.1,27.0,34.0,28.4,24.0,90,54,28,30.35,30.27,9,2,15,0.00
2013-5-5,70.0,52.6,33.0,38.0,33.4,26.0,90,52,29,30.29,30.06,6,2,9,0.00
2013-5-6,81.0,64.3,45.0,45.0,39.2,36.0,75,43,22,30.06,29.91,8,5,20,0.00
2013-5-7,78.0,65.8,49.0,50.0,44.0,40.0,71,47,27,29.94,29.82,11,4,24,0.00
2013-5-8,64.0,50.7,39.0,46.0,33.2,25.0,71,53,31,30.26,29.84,14,8,25,0.00
2013-5-9,64.0,47.6,30.0,28.0,25.2,22.0,81,46,21,30.34,30.19,8,5,18,0.00
2013-5-10,55.0,44.6,38.0,47.0,30.2,-99.9,87,60,44,30.19,29.92,15,5,24,0.06
2013-5-11,55.0,41.6,33.0,34.0,24.6,-99.9,83,55,27,30.31,30.13,10,1,21,0.02
2013-5-12,62.0,45.0,25.0,27.0,21.6,18.0,79,44,22,30.25,29.93,0,0,0,0.00
2013-5-13,86.0,63.2,47.0,47.0,35.0,26.0,49,36,24,29.93,29.50,13,2,22,0.01
2013-5-14,80.0,67.2,57.0,57.0,47.0,38.0,71,50,31,29.65,29.29,20,7,31,0.01
2013-5-15,79.0,61.3,44.0,48.0,42.0,34.0,87,53,26,29.88,29.66,10,3,20,0.00
2013-5-16,73.0,61.1,47.0,41.0,27.2,-99.9,58,40,26,29.96,29.88,9,3,14,0.00
2013-5-17,67.0,56.1,47.0,56.0,40.1,-99.9,81,64,49,30.00,29.93,11,3,16,0.07
2013-5-20,52.0,49.9,48.0,49.0,46.1,43.0,92,87,77,29.91,29.87,15,11,33,0.18
2013-5-21,74.0,59.7,49.0,44.0,34.6,23.0,76,44,16,29.97,29.89,10,0,30,0.22
2013-5-22,76.0,59.6,42.0,51.0,41.8,34.0,82,54,33,30.22,29.97,9,1,17,0.00
2013-5-23,69.0,55.6,40.0,38.0,31.2,25.0,68,43,20,30.40,30.22,7,3,13,0.00
2013-5-24,72.0,58.0,41.0,47.0,35.6,30.0,72,46,26,30.28,30.11,11,4,19,0.00
2013-5-25,65.0,59.0,54.0,53.0,48.5,44.0,79,68,62,30.19,30.11,11,2,15,0.00
2013-5-26,72.0,64.0,56.0,51.0,47.8,44.0,76,57,38,30.16,30.01,13,6,23,0.00
2013-5-27,76.0,64.9,54.0,55.0,49.5,47.0,78,59,37,30.01,29.73,0,0,0,0.00
2013-5-28,67.0,62.3,59.0,60.0,56.1,52.0,93,81,67,29.73,29.52,10,1,14,0.18
2013-5-29,73.0,65.5,56.0,61.0,57.5,53.0,89,76,64,29.72,29.53,8,4,15,0.00
2013-5-30,62.0,57.9,55.0,58.0,55.7,52.0,95,92,86,29.72,29.57,13,6,23,0.54
2013-5-31,55.0,52.6,48.0,53.0,50.6,44.0,96,93,85,29.81,29.49,14,7,26,0.85
2013-6-1,63.0,53.6,47.0,48.0,44.0,40.0,88,71,49,30.09,29.81,11,3,22,0.04
2013-6-2,69.0,53.8,37.0,43.0,35.4,29.0,90,56,25,30.13,30.04,8,4,16,0.00
2013-6-3,71.0,55.8,37.0,39.0,33.8,29.0,89,49,24,30.10,30.01,9,2,18,0.00
2013-6-4,74.0,61.9,50.0,44.0,38.4,33.0,66,44,25,30.10,30.05,10,3,18,0.00
2013-6-5,81.0,64.8,45.0,45.0,41.0,38.0,78,46,25,30.12,30.03,8,2,14,0.00
2013-6-6,78.0,64.0,53.0,50.0,46.4,42.0,81,56,29,30.06,30.00,7,3,15,0.00
2013-6-7,72.0,63.0,57.0,54.0,50.6,44.0,81,65,45,29.95,29.83,12,4,29,0.02
2013-6-8,78.0,65.3,51.0,53.0,49.3,47.0,89,60,35,29.86,29.81,13,6,21,0.00
2013-6-9,70.0,62.3,56.0,60.0,53.9,48.0,87,75,59,29.87,29.82,8,3,20,0.05
2013-6-10,76.0,63.5,54.0,64.0,55.8,51.0,92,77,56,29.82,29.66,9,3,16,0.10
2013-6-11,84.0,67.2,53.0,56.0,51.3,49.0,89,61,34,29.88,29.77,10,3,18,0.09
2013-6-12,76.0,65.9,55.0,58.0,53.2,49.0,81,65,46,30.06,29.88,8,3,15,0.00
2013-6-13,80.0,71.1,55.0,55.0,47.3,42.0,89,48,27,30.14,30.01,9,3,15,0.00
2013-6-14,78.0,68.8,60.0,63.0,56.1,45.0,87,64,51,30.01,29.70,12,5,21,0.13
2013-6-15,82.0,70.6,60.0,62.0,52.7,47.0,88,57,30,29.73,29.67,15,4,26,0.00
2013-6-16,78.0,67.0,57.0,58.0,54.3,52.0,84,65,47,29.85,29.71,7,2,15,0.00
2013-6-17,81.0,67.4,55.0,58.0,51.2,44.0,88,61,27,30.04,29.85,8,2,14,0.00
2013-6-18,79.0,66.9,51.0,59.0,52.8,46.0,86,63,39,30.07,29.89,7,2,13,0.00
2013-6-19,90.0,71.4,55.0,60.0,55.3,51.0,88,61,30,29.93,29.87,7,2,16,0.00
2013-6-20,83.0,70.3,61.0,65.0,58.9,54.0,83,68,53,29.95,29.85,10,4,20,0.00
2013-6-22,81.0,77.2,69.0,68.0,65.4,63.0,81,67,61,29.88,29.78,10,3,17,0.00
2013-6-23,76.0,65.5,59.0,67.0,62.3,56.0,95,90,73,29.81,29.47,12,4,26,0.87
2013-6-24,88.0,73.0,58.0,63.0,58.5,54.0,91,64,38,29.71,29.60,10,4,21,0.09
2013-6-25,90.0,72.7,61.0,70.0,62.8,57.0,91,73,48,29.72,29.64,7,1,14,0.00
2013-6-26,86.0,72.6,64.0,68.0,64.3,59.0,95,77,48,29.65,29.57,11,2,19,0.37
2013-6-27,71.0,67.1,64.0,64.0,62.1,61.0,92,84,75,29.81,29.63,10,3,20,0.02
2013-6-28,79.0,69.3,64.0,66.0,62.2,59.0,89,79,58,29.96,29.81,9,4,17,0.00
2013-6-29,87.0,68.2,60.0,64.0,56.9,51.0,92,71,29,30.06,29.95,9,3,16,0.00
2013-6-30,89.0,69.3,58.0,64.0,55.9,52.0,82,65,29,30.17,30.06,6,2,12,0.00
2013-7-1,92.0,72.6,59.0,61.0,57.8,54.0,89,64,30,30.22,30.11,5,0,10,0.00
2013-7-2,94.0,77.1,64.0,65.0,60.8,57.0,80,59,35,30.12,29.96,4,0,8,0.00
2013-7-3,91.0,80.4,66.0,64.0,60.4,55.0,88,55,30,29.96,29.74,11,3,18,0.00
2013-7-4,90.0,79.0,70.0,71.0,62.8,58.0,86,59,38,29.75,29.63,10,4,16,0.00
2013-7-5,90.0,74.5,66.0,68.0,62.2,56.0,89,69,34,29.74,29.65,8,2,19,0.00
2013-7-6,84.0,74.8,69.0,65.0,60.8,58.0,72,62,48,29.79,29.72,7,1,12,0.00
2013-7-7,84.0,74.3,68.0,67.0,63.4,60.0,93,71,47,29.91,29.73,9,4,17,0.01
2013-7-8,86.0,71.3,59.0,68.0,59.7,-99.9,91,71,42,29.94,29.83,10,2,17,0.01
2013-7-9,76.0,66.9,61.0,63.0,56.1,50.0,89,69,48,29.95,29.85,8,3,16,0.06
2013-7-10,82.0,65.3,58.0,65.0,55.6,-99.9,92,77,48,29.98,29.94,0,0,0,0.07
2013-7-11,86.0,83.0,78.0,69.0,66.1,61.0,69,57,44,29.82,29.67,0,0,0,0.00
2013-7-12,80.0,76.2,72.0,73.0,68.9,67.0,89,78,68,29.78,29.60,0,0,0,0.04
2013-7-13,92.0,75.1,65.0,69.0,61.7,56.0,92,67,36,29.98,29.77,0,0,0,0.04
2013-7-14,81.0,68.4,61.0,64.0,58.3,54.0,87,72,47,30.18,29.94,6,1,11,0.04
2013-7-15,86.0,72.0,58.0,71.0,60.1,52.0,86,68,42,30.20,29.94,13,4,24,0.01
2013-7-16,83.0,75.1,65.0,69.0,63.8,55.0,90,70,46,30.16,29.84,14,5,23,0.01
2013-7-17,87.0,69.7,60.0,61.0,55.1,47.0,82,63,27,30.22,30.04,6,2,12,0.01
2013-7-18,84.0,71.5,63.0,69.0,62.0,53.0,94,73,55,30.06,29.59,9,2,30,0.59
2013-7-19,83.0,65.3,55.0,67.0,56.7,44.0,95,77,30,29.96,29.67,12,5,23,0.52
2013-7-20,74.0,56.7,49.0,49.0,44.6,-99.9,84,68,36,30.08,29.96,6,2,12,0.01
2013-7-21,68.0,57.4,52.0,63.0,50.5,48.0,95,78,54,29.99,29.52,4,1,7,0.00
2013-7-22,73.0,65.8,60.0,63.0,56.4,51.0,95,74,50,29.92,29.52,12,6,23,0.18
2013-7-23,80.0,64.8,52.0,58.0,53.6,49.0,92,69,40,30.04,29.92,7,2,13,0.01
2013-7-24,81.0,66.7,57.0,64.0,58.0,53.0,87,74,51,29.99,29.84,8,3,17,0.00
2013-7-25,72.0,60.9,58.0,63.0,57.0,53.0,96,87,68,30.08,29.83,10,4,21,0.55
2013-7-26,69.0,59.5,51.0,54.0,50.2,48.0,91,73,48,30.24,30.08,8,3,16,0.02
2013-7-27,76.0,59.4,50.0,54.0,49.7,47.0,90,73,40,30.21,30.05,8,3,16,0.00
2013-7-28,82.0,64.8,50.0,54.0,48.4,43.0,91,60,30,30.06,29.97,5,1,10,0.00
2013-7-29,77.0,65.3,53.0,61.0,53.1,48.0,87,66,45,30.00,29.89,11,4,20,0.02
2013-7-30,80.0,68.0,59.0,63.0,59.4,55.0,95,76,49,29.97,29.89,8,3,16,0.20
2013-7-31,78.0,65.2,54.0,57.0,54.1,50.0,87,69,43,29.97,29.92,12,5,21,0.00
2013-8-1,79.0,64.7,60.0,62.0,55.7,53.0,91,74,42,29.93,29.85,9,2,17,0.02
2013-8-2,77.0,61.4,54.0,59.0,51.5,47.0,88,72,41,30.10,29.88,7,3,14,0.02
2013-8-3,79.0,63.6,51.0,54.0,49.9,46.0,86,64,36,30.23,30.09,4,2,8,0.00
2013-8-4,73.0,60.2,51.0,60.0,53.2,47.0,93,79,46,30.20,29.94,7,2,15,0.23
2013-8-5,82.0,66.8,58.0,61.0,58.2,56.0,95,76,47,29.94,29.72,8,3,16,0.16
2013-8-6,74.0,65.5,57.0,59.0,51.8,44.0,92,64,37,29.90,29.72,9,4,18,0.00
2013-8-7,71.0,59.0,53.0,55.0,48.4,46.0,83,69,45,30.01,29.90,9,3,19,0.02
2013-8-8,73.0,59.9,48.0,53.0,48.5,44.0,90,68,40,30.01,29.94,11,4,19,0.01
2013-8-9,68.0,61.4,55.0,56.0,54.0,50.0,92,77,58,30.12,29.93,9,4,15,0.02
2013-8-10,82.0,61.5,51.0,60.0,53.9,48.0,95,80,38,30.14,30.05,9,2,21,0.13
2013-8-11,82.0,63.9,55.0,63.0,55.4,53.0,97,78,38,30.08,29.99,8,2,15,0.14
2013-8-12,77.0,61.2,57.0,60.0,54.2,48.0,87,79,36,30.14,30.00,7,2,16,0.01
2013-8-13,78.0,67.6,57.0,51.0,49.2,46.0,76,53,38,30.17,30.14,6,2,0,0.00
2013-8-14,56.0,50.6,48.0,49.0,46.7,45.0,92,86,77,30.16,30.14,0,0,0,0.00
2013-8-15,71.0,69.6,68.0,57.0,56.8,56.0,67,64,62,30.00,29.99,3,2,7,0.00
2013-8-16,78.0,67.5,62.0,63.0,58.9,56.0,86,75,60,29.99,29.94,10,4,16,0.00
2013-8-17,83.0,77.2,65.0,67.0,64.2,59.0,81,65,56,29.92,29.78,14,8,27,0.00
2013-8-18,81.0,74.4,64.0,69.0,66.8,62.0,93,78,65,29.84,29.76,10,4,16,1.04
2013-8-19,94.0,79.3,66.0,69.0,48.0,-99.9,92,52,36,29.79,29.63,10,5,18,0.00
2013-8-20,94.0,74.8,66.0,69.0,59.7,-99.9,86,64,37,29.75,29.63,10,4,23,0.00
2013-8-21,82.0,66.8,59.0,60.0,53.7,46.0,86,66,29,30.08,29.75,9,3,16,0.00
2013-8-22,83.0,66.5,54.0,57.0,51.3,49.0,85,61,32,30.18,30.08,5,2,10,0.00
2013-8-23,84.0,71.2,56.0,62.0,54.3,49.0,79,57,37,30.08,29.84,12,5,20,0.00
2013-8-24,88.0,75.9,70.0,75.0,67.3,-99.9,90,77,64,29.84,29.62,11,5,20,0.03
2013-8-25,97.0,79.1,71.0,72.0,66.2,57.0,90,69,27,29.90,29.68,5,2,12,0.03
2013-8-26,93.0,79.0,63.0,71.0,63.6,59.0,91,63,36,29.92,29.80,8,2,12,0.01
2013-8-27,94.0,76.8,67.0,73.0,67.7,64.0,91,76,48,29.85,29.81,5,1,10,0.00
2013-8-28,100.0,86.4,75.0,63.0,60.1,55.0,62,43,23,29.95,29.91,4,2,8,0.00
2013-8-29,75.0,72.0,70.0,69.0,66.3,62.0,89,82,64,29.91,29.80,5,1,8,0.00
2013-8-30,87.0,75.7,65.0,71.0,66.8,63.0,94,76,54,29.96,29.68,10,4,18,0.00
2013-8-31,89.0,72.0,60.0,68.0,61.4,-99.9,88,73,42,29.83,29.62,11,5,21,0.06
2013-9-1,70.0,59.8,55.0,56.0,51.5,48.0,91,76,48,30.06,29.83,11,5,20,0.06
2013-9-2,76.0,61.7,46.0,51.0,47.5,43.0,93,64,37,30.10,29.91,8,3,17,0.00
2013-9-3,84.0,64.8,54.0,64.0,51.0,43.0,80,62,45,30.09,29.85,9,4,18,0.00
2013-9-4,78.0,57.5,44.0,47.0,42.2,38.0,89,62,25,30.22,30.09,5,2,12,0.00
2013-9-5,85.0,67.7,53.0,62.0,49.5,41.0,74,55,27,30.17,29.90,10,4,20,0.00
2013-9-6,95.0,78.3,67.0,71.0,64.8,53.0,87,65,44,29.92,29.79,8,3,16,0.00
2013-9-7,83.0,66.0,59.0,59.0,52.8,-99.9,87,67,37,30.13,29.92,8,4,17,0.01
2013-9-8,73.0,63.4,55.0,59.0,54.6,51.0,87,74,58,30.12,29.81,7,3,13,0.01
2013-9-9,67.0,63.9,61.0,63.0,59.7,56.0,90,87,79,29.81,29.69,4,2,7,0.02
2013-9-10,85.0,70.6,61.0,64.0,60.6,58.0,94,73,43,29.84,29.74,8,3,17,0.04
2013-9-11,76.0,64.4,57.0,61.0,55.5,50.0,91,74,41,30.16,29.84,7,2,15,0.01
2013-9-12,72.0,58.4,53.0,55.0,50.7,47.0,88,77,48,30.27,30.15,7,2,11,0.00
2013-9-13,80.0,65.1,49.0,54.0,50.4,45.0,86,62,38,30.18,29.75,13,5,24,0.00
2013-9-14,74.0,64.1,53.0,61.0,50.3,-99.9,88,63,49,30.08,29.71,10,6,21,0.08
2013-9-15,53.0,46.9,42.0,43.0,39.7,37.0,84,76,64,30.30,30.08,7,3,14,0.08
2013-9-16,72.0,56.2,41.0,47.0,41.8,37.0,86,62,34,30.31,29.98,13,5,27,0.00
2013-9-17,69.0,61.6,56.0,58.0,52.1,42.0,85,71,55,29.98,29.70,15,9,30,0.00
2013-9-18,67.0,62.1,60.0,64.0,58.7,57.0,90,88,85,29.70,29.55,9,6,16,0.01
2013-9-19,67.0,62.5,52.0,64.0,57.3,46.0,94,84,71,29.86,29.53,10,4,17,0.01
2013-9-20,62.0,51.4,45.0,46.0,41.9,37.0,88,71,47,29.96,29.86,12,5,19,0.00
2013-9-21,63.0,50.3,40.0,42.0,37.9,-99.9,91,66,41,30.01,29.86,6,3,13,0.00
2013-9-22,71.0,57.6,43.0,54.0,46.4,38.0,88,68,49,29.86,29.55,14,7,25,0.00
2013-9-23,78.0,67.5,61.0,57.0,55.3,54.0,77,66,47,29.60,29.52,15,8,25,0.00
2013-9-24,82.0,70.8,53.0,54.0,44.7,40.0,70,42,24,29.83,29.78,8,3,18,0.00
2013-9-25,78.0,63.8,51.0,58.0,50.2,40.0,84,62,44,29.85,29.71,14,5,21,0.00
2013-9-26,72.0,65.2,60.0,62.0,56.7,52.0,88,74,67,29.76,29.58,13,6,26,0.15
2013-9-27,64.0,56.1,47.0,53.0,48.8,43.0,88,77,62,29.80,29.70,5,2,12,0.02
2013-9-28,55.0,50.5,48.0,51.0,47.1,-99.9,95,91,83,29.74,29.59,8,3,16,0.78
2013-9-29,71.0,57.0,41.0,56.0,48.5,39.0,95,76,53,29.67,29.44,11,5,21,0.02
2013-9-30,76.0,65.0,55.0,54.0,46.7,40.0,86,54,28,29.44,29.38,10,4,18,0.01
2013-10-1,59.0,52.7,46.0,44.0,42.4,41.0,81,69,56,29.78,29.70,5,1,11,0.13
2013-10-2,68.0,51.9,40.0,45.0,40.9,36.0,90,69,42,29.94,29.78,7,2,12,0.00
2013-10-3,56.0,48.3,41.0,45.0,41.5,37.0,92,78,61,30.22,29.93,12,6,21,0.00
2013-10-4,51.0,42.6,39.0,38.0,34.3,31.0,85,73,57,30.38,30.24,14,5,23,0.00
2013-10-5,57.0,41.7,34.0,40.0,34.1,30.0,88,75,52,30.28,29.96,8,5,17,0.00
2013-10-6,69.0,48.0,33.0,44.0,35.7,29.0,88,66,35,29.97,29.76,11,4,24,0.00
2013-10-7,65.0,49.4,40.0,43.0,39.2,36.0,90,70,41,29.91,29.69,7,3,13,0.00
2013-10-8,70.0,58.5,50.0,51.0,46.4,40.0,75,65,49,29.70,29.54,9,4,20,0.00
2013-10-9,73.0,53.6,44.0,47.0,42.2,39.0,90,68,36,29.98,29.69,4,1,9,0.00
2013-10-10,73.0,55.6,42.0,54.0,46.6,38.0,91,74,44,29.98,29.70,9,2,15,0.00
2013-10-11,70.0,60.5,57.0,58.0,54.9,53.0,90,82,65,29.70,29.49,8,4,15,0.02
2013-10-12,51.0,46.0,39.0,47.0,37.9,-99.9,89,78,71,30.06,29.56,15,8,29,0.00
2013-10-13,59.0,42.8,36.0,40.0,33.7,30.0,92,72,33,30.34,30.06,5,2,11,0.00
2013-10-14,51.0,41.0,30.0,40.0,34.0,27.0,89,76,65,30.35,30.25,4,1,7,0.00
2013-10-15,52.0,41.4,32.0,36.0,30.7,28.0,86,67,45,30.14,29.95,10,3,16,0.00
2013-10-16,65.0,44.7,33.0,45.0,35.2,29.0,87,71,47,29.95,29.73,7,4,12,0.00
2013-10-17,48.0,42.9,41.0,40.0,35.0,34.0,78,74,68,29.93,29.83,9,5,14,0.00
2013-10-18,51.0,42.6,32.0,37.0,33.4,28.0,89,71,52,29.86,29.67,8,3,14,0.02
2013-10-19,49.0,38.7,36.0,39.0,33.8,-99.9,93,86,59,29.73,29.66,7,3,12,0.05
2013-10-20,41.0,35.7,30.0,35.0,28.9,21.0,92,77,56,29.90,29.68,15,6,25,0.01
2013-10-21,43.0,34.4,30.0,32.0,27.7,23.0,85,76,62,29.97,29.87,13,7,21,0.01
2013-10-22,42.0,34.7,32.0,32.0,28.8,24.0,92,79,58,30.06,29.97,10,4,16,0.01
2013-10-23,42.0,33.1,24.0,34.0,27.1,19.0,89,79,59,30.10,30.01,9,4,14,0.01
2013-10-24,48.0,36.7,30.0,34.0,29.9,25.0,89,77,53,30.21,30.09,10,5,17,0.00
2013-10-25,57.0,44.3,30.0,39.0,34.2,26.0,84,68,51,30.15,29.61,19,10,29,0.00
2013-10-26,44.0,39.3,35.0,33.0,28.9,-99.9,85,69,57,30.13,29.72,14,6,27,0.00
2013-10-27,42.0,33.9,26.0,35.0,25.8,17.0,84,72,60,30.47,29.66,16,6,29,0.00
2013-10-28,34.0,25.1,18.0,20.0,15.9,-99.9,81,71,54,30.63,30.47,6,2,12,0.00
2013-10-29,37.0,26.5,15.0,21.0,16.9,11.0,87,68,46,30.49,30.06,8,3,13,0.00
2013-10-30,48.0,34.0,25.0,32.0,25.0,19.0,80,70,52,30.06,29.60,8,4,16,0.00
2013-10-31,50.0,37.1,29.0,36.0,30.9,25.0,88,79,57,29.60,29.41,5,2,12,0.00
2013-11-1,50.0,32.8,24.0,39.0,27.9,21.0,94,83,57,29.86,29.44,9,2,18,0.00
2013-11-2,54.0,35.2,25.0,37.0,27.9,-99.9,94,79,51,29.96,29.87,5,1,9,0.00
2013-11-3,49.0,41.6,33.0,36.0,33.3,29.0,85,73,59,29.91,29.61,15,7,27,0.00
2013-11-4,48.0,40.1,31.0,39.0,30.8,23.0,78,69,61,29.84,29.57,13,7,22,0.00
2013-11-5,33.0,30.0,28.0,23.0,20.9,20.0,72,69,63,30.09,29.84,9,5,21,0.00
2013-11-6,40.0,29.9,23.0,27.0,22.1,16.0,83,73,54,30.13,30.05,6,3,11,0.00
2013-11-7,37.0,30.7,22.0,27.0,21.5,17.0,84,69,51,30.16,30.01,8,3,13,0.00
2013-11-8,40.0,30.3,20.0,33.0,26.0,16.0,94,84,64,30.01,29.63,11,4,16,0.05
2013-11-9,36.0,33.6,31.0,34.0,30.2,-99.9,95,91,81,30.18,29.63,9,4,17,0.29
2013-11-10,31.0,23.8,10.0,26.0,16.2,4.0,84,73,47,30.38,30.03,14,7,24,0.01
2013-11-11,21.0,13.2,8.0,12.0,5.7,2.0,79,72,52,30.67,30.39,10,4,16,0.00
2013-11-12,38.0,25.8,12.0,28.0,16.8,3.0,76,68,61,30.61,29.96,11,6,21,0.00
2013-11-13,56.0,39.1,30.0,36.0,28.4,24.0,81,68,32,29.93,29.63,11,5,23,0.00
2013-11-14,35.0,32.8,28.0,32.0,29.8,24.0,93,88,78,29.77,29.66,4,2,8,0.00
2013-11-15,48.0,38.5,30.0,39.0,33.0,27.0,92,81,69,29.68,29.30,14,5,24,0.01
2013-11-16,37.0,31.7,28.0,34.0,29.7,26.0,95,93,86,29.40,29.27,6,2,12,0.00
2013-11-17,32.0,26.2,21.0,30.0,24.0,19.0,94,91,89,29.90,29.40,13,8,24,0.00
2013-11-18,25.0,19.7,18.0,20.0,16.3,14.0,91,86,73,30.16,29.91,9,4,15,0.15
2013-11-19,35.0,28.8,19.0,31.0,24.2,16.0,90,83,75,30.11,29.49,14,7,24,0.01
2013-11-20,34.0,23.2,15.0,30.0,17.8,9.0,88,79,62,30.25,29.50,11,7,19,0.01
2013-11-21,16.0,9.0,4.0,11.0,4.3,-1.0,92,81,66,30.53,30.25,15,6,23,0.03
2013-11-22,14.0,7.2,-4.0,9.0,2.5,-9.0,87,80,67,30.80,30.32,13,6,21,0.00
2013-11-23,8.0,-0.9,-8.0,2.0,-7.6,-99.9,84,76,57,30.86,30.43,11,4,21,0.00
2013-11-24,34.0,19.7,7.0,31.0,14.8,2.0,89,80,76,30.43,29.58,17,8,33,0.00
2013-11-25,32.0,23.1,15.0,29.0,17.0,9.0,87,77,73,30.11,29.80,16,10,28,0.00
2013-11-26,21.0,11.4,6.0,11.0,6.8,2.0,89,81,66,30.44,30.12,12,5,23,0.00
2013-11-27,17.0,12.8,6.0,13.0,9.7,3.0,89,87,83,30.37,30.00,11,5,19,0.00
2013-11-28,19.0,10.6,1.0,14.0,7.2,-2.0,90,86,78,30.45,30.12,5,2,10,0.01
2013-11-29,22.0,14.4,0.0,19.0,10.8,-3.0,89,86,81,30.43,29.96,10,4,21,0.01
2013-11-30,23.0,21.7,21.0,19.0,17.3,-99.9,89,86,85,30.20,29.98,5,2,8,0.00
2013-12-1,25.0,23.0,22.0,23.0,19.9,18.0,92,88,82,30.19,29.92,6,2,11,0.00
2013-12-2,24.0,21.3,19.0,20.0,17.6,16.0,92,86,82,29.94,29.82,9,5,18,0.00
2013-12-3,19.0,16.1,12.0,16.0,13.0,9.0,88,87,85,30.06,29.94,10,6,18,0.00
2013-12-4,16.0,13.6,11.0,13.0,10.6,8.0,89,88,87,30.06,29.77,12,6,19,0.00
2013-12-5,12.0,6.5,-1.0,9.0,2.8,-5.0,89,85,81,30.20,29.76,13,9,22,0.00
2013-12-6,5.0,-2.5,-8.0,-1.0,-6.9,-12.0,85,81,74,30.48,30.21,10,5,16,0.00
2013-12-7,-6.0,-9.6,-14.0,-11.0,-16.2,-99.9,83,76,70,30.48,30.29,9,4,19,0.00
2013-12-8,-2.0,-8.5,-16.0,-6.0,-13.6,-21.0,82,77,72,30.28,29.94,9,5,19,0.00
2013-12-9,-4.0,-9.1,-15.0,-11.0,-14.1,-20.0,82,78,67,29.94,29.78,6,3,11,0.00
2013-12-10,2.0,-8.1,-12.0,-4.0,-12.8,-16.0,89,79,71,30.27,29.80,10,4,17,0.00
2013-12-11,-2.0,-9.5,-15.0,-10.0,-14.9,-20.0,80,76,66,30.33,30.13,7,4,15,0.00
2013-12-12,2.0,-5.6,-9.0,-4.0,-11.0,-15.0,82,77,73,30.34,30.13,8,4,13,0.00
2013-12-13,-7.0,-10.4,-13.0,-14.0,-16.0,-20.0,78,75,68,30.47,30.34,6,2,11,0.00
2013-12-14,0.0,-8.8,-16.0,-6.0,-14.9,-99.9,81,77,68,30.42,30.21,5,2,9,0.00
2013-12-15,-2.0,-13.6,-23.0,-8.0,-18.3,-28.0,82,79,74,30.24,29.88,12,3,23,0.00
2013-12-16,33.0,16.5,-1.0,26.0,11.8,-6.0,89,82,71,29.87,29.62,14,7,27,0.02
2013-12-17,26.0,7.7,-2.0,23.0,2.2,-7.0,88,78,58,30.05,29.67,12,6,22,0.02
2013-12-18,12.0,5.0,-6.0,5.0,-0.2,-11.0,83,79,71,30.07,29.58,12,6,21,0.00
2013-12-19,0.0,-6.7,-13.0,-6.0,-11.5,-17.0,83,79,72,30.31,30.08,8,3,14,0.00
2013-12-20,10.0,-0.0,-6.0,1.0,-5.6,-11.0,82,77,63,30.08,29.84,8,4,15,0.00
2013-12-21,-3.0,-3.7,-4.0,-8.0,-8.7,-9.0,79,78,77,29.93,29.91,6,6,14,0.00
2013-12-22,-5.0,-12.8,-18.0,-14.0,-19.5,-23.0,76,71,61,30.49,30.34,8,4,12,0.00
2013-12-23,-7.0,-13.0,-19.0,-14.0,-18.8,-24.0,78,74,68,30.53,30.20,14,4,22,0.00
2013-12-24,12.0,3.0,-9.0,9.0,-1.6,-14.0,88,81,69,30.20,29.89,19,6,36,0.01
2013-12-25,14.0,8.1,-2.0,11.0,3.1,-6.0,88,80,73,30.12,29.95,11,5,21,0.01
2013-12-26,18.0,6.0,-6.0,15.0,2.3,-10.0,88,84,79,30.08,29.87,9,3,14,0.00
2013-12-27,34.0,23.7,10.0,30.0,20.3,6.0,90,87,82,29.97,29.60,10,6,20,0.01
2013-12-28,10.0,-2.7,-18.0,6.0,-7.7,-99.9,87,81,72,30.48,29.92,15,8,28,0.01
2013-12-29,-10.0,-17.5,-22.0,-16.0,-22.0,-27.0,80,78,75,30.47,30.12,5,2,9,0.00
2013-12-30,-10.0,-19.1,-22.0,-16.0,-23.5,-27.0,92,79,74,30.26,30.13,8,2,14,0.00
2013-12-31,-14.0,-21.6,-27.0,-20.0,-26.5,-32.0,79,77,72,30.44,30.17,8,3,15,0.00
2014-1-1,-10.0,-18.6,-23.0,-16.0,-23.1,-28.0,80,78,73,30.52,30.44,3,1,7,0.00
2014-1-2,-3.0,-14.6,-23.0,-8.0,-19.1,-28.0,81,79,74,30.46,29.94,15,4,26,0.00